Time;durP1;ratioP1;P1;durP2;ratioP2;P2;SDS_P1;SDS_P2;PMS_P1;PMS_P2;Temp;Humidity;BMP_temperature;BMP_pressure;BME280_temperature;BME280_humidity;BME280_pressure;Samples;Min_cycle;Max_cycle;Signal;HPM_P1;HPM_P2
2024/04/16 00:00:52;;;;;;;;;;;;;;;;;;4437204;32;19929;-63
2024/04/16 00:03:18;;;;;;;;;;;;;;;;;;4451680;32;19944;-65
2024/04/16 00:05:43;;;;;;;;;;;;;;;;;;4437146;32;19932;-65
2024/04/16 00:08:08;;;;;;;;;;;;;;;;;;4436289;32;20373;-64
2024/04/16 00:10:33;;;;;;;;;;;;;;;;;;4434439;32;19940;-74
2024/04/16 00:12:58;;;;;;;;;;;;;;;;;;4436839;32;19959;-75
2024/04/16 00:15:23;;;;;;;;;;;;;;;;;;4435674;32;19956;-73
2024/04/16 00:17:48;;;;;;;;;;;;;;;;;;4433639;32;19941;-72
2024/04/16 00:20:13;;;;;;;;;;;;;;;;;;4435785;32;19933;-71
2024/04/16 00:22:38;;;;;;;;;;;;;;;;;;4435668;32;19971;-72
2024/04/16 00:25:04;;;;;;;;;;;;;;;;;;4435078;32;19937;-71
2024/04/16 00:27:29;;;;;;;;;;;;;;;;;;4443405;32;19932;-72
2024/04/16 00:29:54;;;;;;;;;;;;;;;;;;4452563;32;19951;-69
2024/04/16 00:32:19;;;;;;;;;;;;;;;;;;4451767;32;19959;-71
2024/04/16 00:34:44;;;;;;;;;;;;;;;;;;4452048;32;19943;-70
2024/04/16 00:37:09;;;;;;;;;;;;;;;;;;4436004;32;19940;-70
2024/04/16 00:39:34;;;;;;;;;;;;;;;;;;4443034;32;20333;-72
2024/04/16 00:42:00;;;;;;;;;;;;;;;;;;4439058;32;19933;-70
2024/04/16 00:44:25;;;;;;;;;;;;;;;;;;4443590;32;19964;-70
2024/04/16 00:46:50;;;;;;;;;;;;;;;;;;4453151;32;19980;-69
2024/04/16 00:49:15;;;;;;;;;;;;;;;;;;4454487;32;20321;-71
2024/04/16 00:51:40;;;;;;;;;;;;;;;;;;4453296;32;19955;-70
2024/04/16 00:54:05;;;;;;;;;;;;;;;;;;4443745;32;19967;-69
2024/04/16 00:56:30;;;;;;;;;;;;;;;;;;4442868;32;20335;-70
2024/04/16 00:58:55;;;;;;;;;;;;;;;;;;4454827;32;19940;-70
2024/04/16 01:01:21;;;;;;;;;;;;;;;;;;4439608;32;19947;-70
2024/04/16 01:03:46;;;;;;;;;;;;;;;;;;4438187;32;20270;-69
2024/04/16 01:06:11;;;;;;;;;;;;;;;;;;4438904;32;19979;-69
2024/04/16 01:08:36;;;;;;;;;;;;;;;;;;4438842;32;20402;-69
2024/04/16 01:11:01;;;;;;;;;;;;;;;;;;4441611;32;20012;-69
2024/04/16 01:13:26;;;;;;;;;;;;;;;;;;4443115;32;19985;-69
2024/04/16 01:15:51;;;;;;;;;;;;;;;;;;4435442;32;19972;-69
2024/04/16 01:18:17;;;;;;;;;;;;;;;;;;4436035;32;20008;-70
2024/04/16 01:20:42;;;;;;;;;;;;;;;;;;4436070;32;19999;-68
2024/04/16 01:23:07;;;;;;;;;;;;;;;;;;4435650;32;20341;-70
2024/04/16 01:25:33;;;;;;;;;;;;;;;;;;4437154;32;19987;-69
2024/04/16 01:27:58;;;;;;;;;;;;;;;;;;4436219;32;19978;-70
2024/04/16 01:30:23;;;;;;;;;;;;;;;;;;4437076;32;19940;-70
2024/04/16 01:32:48;;;;;;;;;;;;;;;;;;4436623;32;20019;-73
2024/04/16 01:35:13;;;;;;;;;;;;;;;;;;4437183;32;19932;-75
2024/04/16 01:37:39;;;;;;;;;;;;;;;;;;4436308;32;19943;-73
2024/04/16 01:40:04;;;;;;;;;;;;;;;;;;4436651;32;20003;-76
2024/04/16 01:42:29;;;;;;;;;;;;;;;;;;4435218;32;19967;-75
2024/04/16 01:44:56;;;;;;;;;;;;;;;;;;4438237;32;19985;-75
2024/04/16 01:47:21;;;;;;;;;;;;;;;;;;4436094;32;19978;-74
2024/04/16 01:49:46;;;;;;;;;;;;;;;;;;4436279;32;19941;-75
2024/04/16 01:52:11;;;;;;;;;;;;;;;;;;4436265;32;19976;-75
2024/04/16 01:54:36;;;;;;;;;;;;;;;;;;4437101;32;19941;-77
2024/04/16 01:57:02;;;;;;;;;;;;;;;;;;4451232;32;19960;-76
2024/04/16 01:59:27;;;;;;;;;;;;;;;;;;4452760;32;20356;-76
2024/04/16 02:01:52;;;;;;;;;;;;;;;;;;4452913;32;19998;-76
2024/04/16 02:04:17;;;;;;;;;;;;;;;;;;4452363;32;19933;-76
2024/04/16 02:06:42;;;;;;;;;;;;;;;;;;4437660;32;19948;-75
2024/04/16 02:09:07;;;;;;;;;;;;;;;;;;4437567;32;20242;-77
2024/04/16 02:11:32;;;;;;;;;;;;;;;;;;4451789;32;19940;-76
2024/04/16 02:13:57;;;;;;;;;;;;;;;;;;4452806;32;19963;-78
2024/04/16 02:16:22;;;;;;;;;;;;;;;;;;4452174;32;19932;-77
2024/04/16 02:18:48;;;;;;;;;;;;;;;;;;4452078;32;19966;-77
2024/04/16 02:21:13;;;;;;;;;;;;;;;;;;4453363;32;19941;-77
2024/04/16 02:23:40;;;;;;;;;;;;;;;;;;4452917;32;19940;-76
2024/04/16 02:26:05;;;;;;;;;;;;;;;;;;4452672;32;19932;-77
2024/04/16 02:28:30;;;;;;;;;;;;;;;;;;4453667;32;19974;-76
2024/04/16 02:30:55;;;;;;;;;;;;;;;;;;4439312;32;19933;-74
2024/04/16 02:33:20;;;;;;;;;;;;;;;;;;4437892;32;19945;-74
2024/04/16 02:35:46;;;;;;;;;;;;;;;;;;4453313;32;19956;-75
2024/04/16 02:38:11;;;;;;;;;;;;;;;;;;4451932;32;19941;-75
2024/04/16 02:40:36;;;;;;;;;;;;;;;;;;4442421;32;20352;-76
2024/04/16 02:43:01;;;;;;;;;;;;;;;;;;4437230;32;19972;-74
2024/04/16 02:45:27;;;;;;;;;;;;;;;;;;4435154;32;20269;-74
2024/04/16 02:47:52;;;;;;;;;;;;;;;;;;4439536;32;19976;-73
2024/04/16 02:50:17;;;;;;;;;;;;;;;;;;4437586;32;19944;-76
2024/04/16 02:52:42;;;;;;;;;;;;;;;;;;4437035;32;19967;-76
2024/04/16 02:55:07;;;;;;;;;;;;;;;;;;4437438;32;19950;-74
2024/04/16 02:57:34;;;;;;;;;;;;;;;;;;4451957;32;19992;-76
2024/04/16 02:59:59;;;;;;;;;;;;;;;;;;4451256;32;19977;-74
2024/04/16 03:02:24;;;;;;;;;;;;;;;;;;4449744;32;19940;-76
2024/04/16 03:04:49;;;;;;;;;;;;;;;;;;4436379;32;19952;-76
2024/04/16 03:07:14;;;;;;;;;;;;;;;;;;4435843;32;20369;-76
2024/04/16 03:09:39;;;;;;;;;;;;;;;;;;4435082;32;19933;-74
2024/04/16 03:12:04;;;;;;;;;;;;;;;;;;4437849;32;19932;-74
2024/04/16 03:14:29;;;;;;;;;;;;;;;;;;4435999;32;19937;-74
2024/04/16 03:16:54;;;;;;;;;;;;;;;;;;4437048;32;20018;-75
2024/04/16 03:19:20;;;;;;;;;;;;;;;;;;4451766;32;19932;-77
2024/04/16 03:21:45;;;;;;;;;;;;;;;;;;4437898;32;19972;-74
2024/04/16 03:24:10;;;;;;;;;;;;;;;;;;4451270;32;19951;-73
2024/04/16 03:26:35;;;;;;;;;;;;;;;;;;4452184;32;19965;-74
2024/04/16 03:29:00;;;;;;;;;;;;;;;;;;4438662;32;20257;-75
2024/04/16 03:31:25;;;;;;;;;;;;;;;;;;4453124;32;19989;-75
2024/04/16 03:33:50;;;;;;;;;;;;;;;;;;4451197;32;19970;-76
2024/04/16 03:36:16;;;;;;;;;;;;;;;;;;4450136;32;19932;-74
2024/04/16 03:38:41;;;;;;;;;;;;;;;;;;4452614;32;20289;-76
2024/04/16 03:41:06;;;;;;;;;;;;;;;;;;4450975;32;19979;-77
2024/04/16 03:43:31;;;;;;;;;;;;;;;;;;4438077;32;19978;-75
2024/04/16 03:45:56;;;;;;;;;;;;;;;;;;4437257;32;20021;-75
2024/04/16 03:48:21;;;;;;;;;;;;;;;;;;4438111;32;20284;-75
2024/04/16 03:50:47;;;;;;;;;;;;;;;;;;4434408;32;19943;-74
2024/04/16 03:53:12;;;;;;;;;;;;;;;;;;4436279;32;19948;-74
2024/04/16 03:55:37;;;;;;;;;;;;;;;;;;4435459;32;19993;-75
2024/04/16 03:58:02;;;;;;;;;;;;;;;;;;4436058;32;20272;-75
2024/04/16 04:03:16;;;;;;;;;;;;;;;;;;4450395;32;19946;-74
2024/04/16 04:05:41;;;;;;;;;;;;;;;;;;4451777;32;19975;-75
2024/04/16 04:08:06;;;;;;;;;;;;;;;;;;4451717;32;19977;-76
2024/04/16 04:10:31;;;;;;;;;;;;;;;;;;4450719;32;19932;-74
2024/04/16 04:12:57;;;;;;;;;;;;;;;;;;4451281;32;20339;-75
2024/04/16 04:15:22;;;;;;;;;;;;;;;;;;4437525;32;19999;-74
2024/04/16 04:17:47;;;;;;;;;;;;;;;;;;4426922;32;19941;-75
2024/04/16 04:20:12;;;;;;;;;;;;;;;;;;4439507;32;20289;-74
2024/04/16 04:22:37;;;;;;;;;;;;;;;;;;4441108;32;19937;-74
2024/04/16 04:25:02;;;;;;;;;;;;;;;;;;4426206;32;19944;-74
2024/04/16 04:27:27;;;;;;;;;;;;;;;;;;4440561;32;19948;-73
2024/04/16 04:29:53;;;;;;;;;;;;;;;;;;4439959;32;19948;-74
2024/04/16 04:32:18;;;;;;;;;;;;;;;;;;4440072;32;20275;-75
2024/04/16 04:34:43;;;;;;;;;;;;;;;;;;4441030;32;19949;-76
2024/04/16 04:37:08;;;;;;;;;;;;;;;;;;4442627;32;19994;-74
2024/04/16 04:39:33;;;;;;;;;;;;;;;;;;4440974;32;19933;-75
2024/04/16 04:41:58;;;;;;;;;;;;;;;;;;4443947;32;19941;-75
2024/04/16 04:44:23;;;;;;;;;;;;;;;;;;4441641;32;19933;-77
2024/04/16 04:46:49;;;;;;;;;;;;;;;;;;4441466;32;19988;-76
2024/04/16 04:49:14;;;;;;;;;;;;;;;;;;4437273;32;19941;-74
2024/04/16 04:51:39;;;;;;;;;;;;;;;;;;4439398;32;19937;-74
2024/04/16 04:54:04;;;;;;;;;;;;;;;;;;4436469;32;19945;-74
2024/04/16 04:56:29;;;;;;;;;;;;;;;;;;4438931;32;19945;-75
2024/04/16 04:58:54;;;;;;;;;;;;;;;;;;4438103;32;19932;-76
2024/04/16 05:01:19;;;;;;;;;;;;;;;;;;4444477;32;19991;-74
2024/04/16 05:03:44;;;;;;;;;;;;;;;;;;4454745;32;19965;-73
2024/04/16 05:06:09;;;;;;;;;;;;;;;;;;4454197;32;19933;-75
2024/04/16 05:08:34;;;;;;;;;;;;;;;;;;4454787;32;19936;-75
2024/04/16 05:11:00;;;;;;;;;;;;;;;;;;4453339;32;19936;-76
2024/04/16 05:13:25;;;;;;;;;;;;;;;;;;4439428;32;19936;-75
2024/04/16 05:15:50;;;;;;;;;;;;;;;;;;4452580;32;19947;-75
2024/04/16 05:18:15;;;;;;;;;;;;;;;;;;4437367;32;19933;-74
2024/04/16 05:20:40;;;;;;;;;;;;;;;;;;4437358;32;19973;-73
2024/04/16 05:23:05;;;;;;;;;;;;;;;;;;4446884;32;19947;-74
2024/04/16 05:25:30;;;;;;;;;;;;;;;;;;4452400;32;19941;-74
2024/04/16 05:27:55;;;;;;;;;;;;;;;;;;4437921;32;19952;-72
2024/04/16 05:30:20;;;;;;;;;;;;;;;;;;4452891;32;20180;-72
2024/04/16 05:32:47;;;;;;;;;;;;;;;;;;4450046;32;19944;-71
2024/04/16 05:35:12;;;;;;;;;;;;;;;;;;4443974;32;19936;-74
2024/04/16 05:37:38;;;;;;;;;;;;;;;;;;4437155;32;19975;-73
2024/04/16 05:40:03;;;;;;;;;;;;;;;;;;4437791;32;19937;-73
2024/04/16 05:42:28;;;;;;;;;;;;;;;;;;4436898;32;19942;-72
2024/04/16 05:44:53;;;;;;;;;;;;;;;;;;4438274;32;19937;-72
2024/04/16 05:47:18;;;;;;;;;;;;;;;;;;4436148;32;19951;-72
2024/04/16 05:49:43;;;;;;;;;;;;;;;;;;4437686;32;19967;-72
2024/04/16 05:52:08;;;;;;;;;;;;;;;;;;4438152;32;19933;-72
2024/04/16 05:54:34;;;;;;;;;;;;;;;;;;4436656;32;20605;-72
2024/04/16 05:57:00;;;;;;;;;;;;;;;;;;4436311;32;19944;-72
2024/04/16 05:59:25;;;;;;;;;;;;;;;;;;4437761;32;19947;-70
2024/04/16 06:01:50;;;;;;;;;;;;;;;;;;4438786;32;20289;-73
2024/04/16 06:04:15;;;;;;;;;;;;;;;;;;4440885;32;20609;-71
2024/04/16 06:06:40;;;;;;;;;;;;;;;;;;4437434;32;19944;-72
2024/04/16 06:09:05;;;;;;;;;;;;;;;;;;4436174;32;19941;-72
2024/04/16 06:11:31;;;;;;;;;;;;;;;;;;4436902;32;19983;-71
2024/04/16 06:13:56;;;;;;;;;;;;;;;;;;4435648;32;20017;-71
2024/04/16 06:16:21;;;;;;;;;;;;;;;;;;4436621;32;20007;-71
2024/04/16 06:18:46;;;;;;;;;;;;;;;;;;4445295;32;20321;-72
2024/04/16 06:21:12;;;;;;;;;;;;;;;;;;4451921;32;19996;-72
2024/04/16 06:23:37;;;;;;;;;;;;;;;;;;4452443;32;19937;-71
2024/04/16 06:26:02;;;;;;;;;;;;;;;;;;4439200;32;19994;-72
2024/04/16 06:28:27;;;;;;;;;;;;;;;;;;4451914;32;19948;-72
2024/04/16 06:30:52;;;;;;;;;;;;;;;;;;4449781;32;20315;-71
2024/04/16 06:33:18;;;;;;;;;;;;;;;;;;4438137;32;19984;-71
2024/04/16 06:35:43;;;;;;;;;;;;;;;;;;4436957;32;19957;-71
2024/04/16 06:38:09;;;;;;;;;;;;;;;;;;4435274;32;19933;-71
2024/04/16 06:40:34;;;;;;;;;;;;;;;;;;4436178;32;20306;-72
2024/04/16 06:42:59;;;;;;;;;;;;;;;;;;4434621;32;19971;-72
2024/04/16 06:45:24;;;;;;;;;;;;;;;;;;4438062;32;19998;-71
2024/04/16 06:47:49;;;;;;;;;;;;;;;;;;4437856;32;19989;-70
2024/04/16 06:50:14;;;;;;;;;;;;;;;;;;4451035;32;19959;-72
2024/04/16 06:52:39;;;;;;;;;;;;;;;;;;4452436;32;20139;-72
2024/04/16 06:55:04;;;;;;;;;;;;;;;;;;4435506;32;20301;-73
2024/04/16 06:57:29;;;;;;;;;;;;;;;;;;4436115;32;19933;-71
2024/04/16 06:59:56;;;;;;;;;;;;;;;;;;4441294;32;19933;-71
2024/04/16 07:02:21;;;;;;;;;;;;;;;;;;4435787;32;19947;-71
2024/04/16 07:04:46;;;;;;;;;;;;;;;;;;4435660;32;19981;-71
2024/04/16 07:07:11;;;;;;;;;;;;;;;;;;4423168;32;19980;-71
2024/04/16 07:09:36;;;;;;;;;;;;;;;;;;4435493;32;20290;-70
2024/04/16 07:12:02;;;;;;;;;;;;;;;;;;4435615;32;19979;-70
2024/04/16 07:14:27;;;;;;;;;;;;;;;;;;4436924;32;19941;-70
2024/04/16 07:16:53;;;;;;;;;;;;;;;;;;4435991;32;19964;-72
2024/04/16 07:19:18;;;;;;;;;;;;;;;;;;4440957;32;19949;-72
2024/04/16 07:21:43;;;;;;;;;;;;;;;;;;4450774;32;19970;-72
2024/04/16 07:24:08;;;;;;;;;;;;;;;;;;4437037;32;19952;-72
2024/04/16 07:26:33;;;;;;;;;;;;;;;;;;4437769;32;19962;-72
2024/04/16 07:28:58;;;;;;;;;;;;;;;;;;4436457;32;19964;-71
2024/04/16 07:31:23;;;;;;;;;;;;;;;;;;4438543;32;19932;-71
2024/04/16 07:33:48;;;;;;;;;;;;;;;;;;4434381;32;19941;-72
2024/04/16 07:36:13;;;;;;;;;;;;;;;;;;4435040;32;20297;-71
2024/04/16 07:38:38;;;;;;;;;;;;;;;;;;4435185;32;19928;-73
2024/04/16 07:41:04;;;;;;;;;;;;;;;;;;4436671;32;19933;-73
2024/04/16 07:43:29;;;;;;;;;;;;;;;;;;4434420;32;19937;-72
2024/04/16 07:45:54;;;;;;;;;;;;;;;;;;4436624;32;19945;-72
2024/04/16 07:48:19;;;;;;;;;;;;;;;;;;4435369;32;19941;-72
2024/04/16 07:50:44;;;;;;;;;;;;;;;;;;4423304;32;20332;-71
2024/04/16 07:53:09;;;;;;;;;;;;;;;;;;4452071;32;19941;-72
2024/04/16 07:55:34;;;;;;;;;;;;;;;;;;4455483;32;19977;-72
2024/04/16 07:57:59;;;;;;;;;;;;;;;;;;4447421;32;19950;-72
2024/04/16 08:00:28;;;;;;;;;;;;;;;;;;4438850;32;19947;-73
2024/04/16 08:02:53;;;;;;;;;;;;;;;;;;4438401;32;19941;-71
2024/04/16 08:05:18;;;;;;;;;;;;;;;;;;4438241;32;20282;-71
2024/04/16 08:07:45;;;;;;;;;;;;;;;;;;4439556;32;19956;-71
2024/04/16 08:10:10;;;;;;;;;;;;;;;;;;4439269;32;20211;-72
2024/04/16 08:12:36;;;;;;;;;;;;;;;;;;4438804;32;20281;-71
2024/04/16 08:15:01;;;;;;;;;;;;;;;;;;4454095;32;19984;-73
2024/04/16 08:17:26;;;;;;;;;;;;;;;;;;4453432;32;20265;-75
2024/04/16 08:19:51;;;;;;;;;;;;;;;;;;4453294;32;20292;-72
2024/04/16 08:22:16;;;;;;;;;;;;;;;;;;4431215;32;20265;-73
2024/04/16 08:24:41;;;;;;;;;;;;;;;;;;4425447;32;19936;-72
2024/04/16 08:27:06;;;;;;;;;;;;;;;;;;4440380;32;19937;-71
2024/04/16 08:29:31;;;;;;;;;;;;;;;;;;4453900;32;20007;-74
2024/04/16 08:31:57;;;;;;;;;;;;;;;;;;4439675;32;19989;-71
2024/04/16 08:34:22;;;;;;;;;;;;;;;;;;4434356;32;19976;-71
2024/04/16 08:36:47;;;;;;;;;;;;;;;;;;4446576;32;20277;-72
2024/04/16 08:39:12;;;;;;;;;;;;;;;;;;4437821;32;19953;-72
2024/04/16 08:41:37;;;;;;;;;;;;;;;;;;4431391;32;19937;-72
2024/04/16 08:44:02;;;;;;;;;;;;;;;;;;4442904;32;20337;-71
2024/04/16 08:46:27;;;;;;;;;;;;;;;;;;4452815;32;20359;-72
2024/04/16 08:48:53;;;;;;;;;;;;;;;;;;4439177;32;20345;-71
2024/04/16 08:51:18;;;;;;;;;;;;;;;;;;4452889;32;19969;-72
2024/04/16 08:53:43;;;;;;;;;;;;;;;;;;4453183;32;20000;-70
2024/04/16 08:56:08;;;;;;;;;;;;;;;;;;4441635;32;19980;-70
2024/04/16 08:58:33;;;;;;;;;;;;;;;;;;4443389;32;19958;-70
2024/04/16 09:00:58;;;;;;;;;;;;;;;;;;4439939;32;20297;-71
2024/04/16 09:03:25;;;;;;;;;;;;;;;;;;4441644;32;20381;-70
2024/04/16 09:05:50;;;;;;;;;;;;;;;;;;4437795;32;19993;-73
2024/04/16 09:08:15;;;;;;;;;;;;;;;;;;4423762;32;19940;-71
2024/04/16 09:10:43;;;;;;;;;;;;;;;;;;4438204;32;19933;-72
2024/04/16 09:13:08;;;;;;;;;;;;;;;;;;4424042;32;20294;-71
2024/04/16 09:15:37;;;;;;;;;;;;;;;;;;4424063;32;20371;-71
2024/04/16 09:18:02;;;;;;;;;;;;;;;;;;4448200;32;20021;-72
2024/04/16 09:20:27;;;;;;;;;;;;;;;;;;4450891;32;19952;-72
2024/04/16 09:22:52;;;;;;;;;;;;;;;;;;4436725;32;19991;-69
2024/04/16 09:25:17;;;;;;;;;;;;;;;;;;4452759;32;20347;-70
2024/04/16 09:27:42;;;;;;;;;;;;;;;;;;4452664;32;20270;-71
2024/04/16 09:30:09;;;;;;;;;;;;;;;;;;4452567;32;19958;-71
2024/04/16 09:32:34;;;;;;;;;;;;;;;;;;4434423;32;19977;-71
2024/04/16 09:35:00;;;;;;;;;;;;;;;;;;4438320;32;19984;-74
2024/04/16 09:37:25;;;;;;;;;;;;;;;;;;4453693;32;19973;-73
2024/04/16 09:39:50;;;;;;;;;;;;;;;;;;4452285;32;19937;-74
2024/04/16 09:42:15;;;;;;;;;;;;;;;;;;4439288;32;19947;-72
2024/04/16 09:44:40;;;;;;;;;;;;;;;;;;4454991;32;19969;-72
2024/04/16 09:47:05;;;;;;;;;;;;;;;;;;4454030;32;19933;-72
2024/04/16 09:49:30;;;;;;;;;;;;;;;;;;4452116;32;19959;-71
2024/04/16 09:51:56;;;;;;;;;;;;;;;;;;4452553;32;19971;-73
2024/04/16 09:54:21;;;;;;;;;;;;;;;;;;4438297;32;19950;-73
2024/04/16 09:56:46;;;;;;;;;;;;;;;;;;4437333;32;20010;-71
2024/04/16 09:59:11;;;;;;;;;;;;;;;;;;4438145;32;20305;-71
2024/04/16 10:01:36;;;;;;;;;;;;;;;;;;4451315;32;19937;-72
2024/04/16 10:04:01;;;;;;;;;;;;;;;;;;4439560;32;19940;-73
2024/04/16 10:06:26;;;;;;;;;;;;;;;;;;4438204;32;19977;-74
2024/04/16 10:08:51;;;;;;;;;;;;;;;;;;4451690;32;19946;-73
2024/04/16 10:11:17;;;;;;;;;;;;;;;;;;4439705;32;19992;-72
2024/04/16 10:13:42;;;;;;;;;;;;;;;;;;4450993;32;20034;-73
2024/04/16 10:16:07;;;;;;;;;;;;;;;;;;4436561;32;19936;-73
2024/04/16 10:18:32;;;;;;;;;;;;;;;;;;4451768;32;20320;-72
2024/04/16 10:20:57;;;;;;;;;;;;;;;;;;4437933;32;19987;-73
2024/04/16 10:23:22;;;;;;;;;;;;;;;;;;4437526;32;19972;-74
2024/04/16 10:25:47;;;;;;;;;;;;;;;;;;4437151;32;19966;-73
2024/04/16 10:28:12;;;;;;;;;;;;;;;;;;4436699;32;19977;-72
2024/04/16 10:30:37;;;;;;;;;;;;;;;;;;4437750;32;19967;-71
2024/04/16 10:33:04;;;;;;;;;;;;;;;;;;4437212;32;20045;-72
2024/04/16 10:35:29;;;;;;;;;;;;;;;;;;4423304;32;19933;-71
2024/04/16 10:37:54;;;;;;;;;;;;;;;;;;4437949;32;19940;-71
2024/04/16 10:40:19;;;;;;;;;;;;;;;;;;4437696;32;19959;-72
2024/04/16 10:42:44;;;;;;;;;;;;;;;;;;4421731;32;20305;-73
2024/04/16 10:45:09;;;;;;;;;;;;;;;;;;4423341;32;19975;-73
2024/04/16 10:47:34;;;;;;;;;;;;;;;;;;4441004;32;20469;-72
2024/04/16 10:50:00;;;;;;;;;;;;;;;;;;4451014;32;19947;-72
2024/04/16 10:52:25;;;;;;;;;;;;;;;;;;4453248;32;19971;-72
2024/04/16 10:54:52;;;;;;;;;;;;;;;;;;4453505;32;19987;-72
2024/04/16 10:57:17;;;;;;;;;;;;;;;;;;4454987;32;19947;-72
2024/04/16 10:59:42;;;;;;;;;;;;;;;;;;4453454;32;19936;-72
2024/04/16 11:02:07;;;;;;;;;;;;;;;;;;4436900;32;19956;-73
2024/04/16 11:04:33;;;;;;;;;;;;;;;;;;4452312;32;20023;-72
2024/04/16 11:06:58;;;;;;;;;;;;;;;;;;4437372;32;19948;-72
2024/04/16 11:09:23;;;;;;;;;;;;;;;;;;4450576;32;19975;-72
2024/04/16 11:11:49;;;;;;;;;;;;;;;;;;4450045;32;20265;-72
2024/04/16 11:14:14;;;;;;;;;;;;;;;;;;4450037;32;19978;-72
2024/04/16 11:16:39;;;;;;;;;;;;;;;;;;4447394;32;19988;-71
2024/04/16 11:19:04;;;;;;;;;;;;;;;;;;4435723;32;19933;-70
2024/04/16 11:21:31;;;;;;;;;;;;;;;;;;4433559;32;20004;-71
2024/04/16 11:23:57;;;;;;;;;;;;;;;;;;4436833;32;19964;-70
2024/04/16 11:26:22;;;;;;;;;;;;;;;;;;4437819;32;20365;-73
2024/04/16 11:28:47;;;;;;;;;;;;;;;;;;4437018;32;19992;-71
2024/04/16 11:31:12;;;;;;;;;;;;;;;;;;4450715;32;20380;-69
2024/04/16 11:33:37;;;;;;;;;;;;;;;;;;4436477;32;19936;-69
2024/04/16 11:36:02;;;;;;;;;;;;;;;;;;4436767;32;19972;-70
2024/04/16 11:38:27;;;;;;;;;;;;;;;;;;4436147;32;19964;-70
2024/04/16 11:40:52;;;;;;;;;;;;;;;;;;4436998;32;19968;-71
2024/04/16 11:43:18;;;;;;;;;;;;;;;;;;4436409;32;20046;-69
2024/04/16 11:45:43;;;;;;;;;;;;;;;;;;4435221;32;19980;-70
2024/04/16 11:48:08;;;;;;;;;;;;;;;;;;4450568;32;19971;-72
2024/04/16 11:50:33;;;;;;;;;;;;;;;;;;4450803;32;20381;-71
2024/04/16 11:52:58;;;;;;;;;;;;;;;;;;4452658;32;20365;-71
2024/04/16 11:55:23;;;;;;;;;;;;;;;;;;4451599;32;19937;-72
2024/04/16 11:57:48;;;;;;;;;;;;;;;;;;4451508;32;19947;-69
2024/04/16 12:00:13;;;;;;;;;;;;;;;;;;4452716;32;19970;-70
2024/04/16 12:02:38;;;;;;;;;;;;;;;;;;4438460;32;19937;-69
2024/04/16 12:05:03;;;;;;;;;;;;;;;;;;4436631;32;19970;-70
2024/04/16 12:07:28;;;;;;;;;;;;;;;;;;4422923;32;19941;-71
2024/04/16 12:09:54;;;;;;;;;;;;;;;;;;4437162;32;19933;-72
2024/04/16 12:12:19;;;;;;;;;;;;;;;;;;4435140;32;19941;-71
2024/04/16 12:14:44;;;;;;;;;;;;;;;;;;4435097;32;20331;-71
2024/04/16 12:17:09;;;;;;;;;;;;;;;;;;4433963;32;20035;-71
2024/04/16 12:19:34;;;;;;;;;;;;;;;;;;4434975;32;20332;-70
2024/04/16 12:21:59;;;;;;;;;;;;;;;;;;4436770;32;19992;-71
2024/04/16 12:24:24;;;;;;;;;;;;;;;;;;4435966;32;19947;-71
2024/04/16 12:26:49;;;;;;;;;;;;;;;;;;4449344;32;19936;-70
2024/04/16 12:29:14;;;;;;;;;;;;;;;;;;4437774;32;19951;-69
2024/04/16 12:31:39;;;;;;;;;;;;;;;;;;4451357;32;19932;-71
2024/04/16 12:34:05;;;;;;;;;;;;;;;;;;4436059;32;19945;-71
2024/04/16 12:36:30;;;;;;;;;;;;;;;;;;4437101;32;20267;-70
2024/04/16 12:38:56;;;;;;;;;;;;;;;;;;4454255;32;20369;-70
2024/04/16 12:41:21;;;;;;;;;;;;;;;;;;4441727;32;20314;-70
2024/04/16 12:43:46;;;;;;;;;;;;;;;;;;4438716;32;20355;-70
2024/04/16 12:46:11;;;;;;;;;;;;;;;;;;4439922;32;19933;-71
2024/04/16 12:48:36;;;;;;;;;;;;;;;;;;4438894;32;19933;-70
2024/04/16 12:51:01;;;;;;;;;;;;;;;;;;4440420;32;19986;-70
2024/04/16 12:53:27;;;;;;;;;;;;;;;;;;4439893;32;20311;-70
2024/04/16 12:55:52;;;;;;;;;;;;;;;;;;4440585;32;20008;-70
2024/04/16 12:58:17;;;;;;;;;;;;;;;;;;4440885;32;20006;-72
2024/04/16 13:00:42;;;;;;;;;;;;;;;;;;4437912;32;19960;-71
2024/04/16 13:03:10;;;;;;;;;;;;;;;;;;4440598;32;19933;-70
2024/04/16 13:05:35;;;;;;;;;;;;;;;;;;4438649;32;19933;-71
2024/04/16 13:08:01;;;;;;;;;;;;;;;;;;4439703;32;19936;-70
2024/04/16 13:10:26;;;;;;;;;;;;;;;;;;4438571;32;19940;-71
2024/04/16 13:12:51;;;;;;;;;;;;;;;;;;4439448;32;19936;-70
2024/04/16 13:15:16;;;;;;;;;;;;;;;;;;4440536;32;19932;-72
2024/04/16 13:17:41;;;;;;;;;;;;;;;;;;4439933;32;19949;-70
2024/04/16 13:20:06;;;;;;;;;;;;;;;;;;4438795;32;19937;-71
2024/04/16 13:22:31;;;;;;;;;;;;;;;;;;4441120;32;19943;-71
2024/04/16 13:24:57;;;;;;;;;;;;;;;;;;4444069;32;19932;-71
2024/04/16 13:27:22;;;;;;;;;;;;;;;;;;4441285;32;19971;-70
2024/04/16 13:29:47;;;;;;;;;;;;;;;;;;4452565;32;19936;-72
2024/04/16 13:32:13;;;;;;;;;;;;;;;;;;4433243;32;20000;-71
2024/04/16 13:34:38;;;;;;;;;;;;;;;;;;4451425;32;19987;-71
2024/04/16 13:37:03;;;;;;;;;;;;;;;;;;4452327;32;19936;-70
2024/04/16 13:39:29;;;;;;;;;;;;;;;;;;4452849;32;19985;-70
2024/04/16 13:41:54;;;;;;;;;;;;;;;;;;4453762;32;20269;-70
2024/04/16 13:44:19;;;;;;;;;;;;;;;;;;4453211;32;19933;-69
2024/04/16 13:46:44;;;;;;;;;;;;;;;;;;4454185;32;19992;-70
2024/04/16 13:49:09;;;;;;;;;;;;;;;;;;4441502;32;19937;-72
2024/04/16 13:51:35;;;;;;;;;;;;;;;;;;4436207;32;20286;-71
2024/04/16 13:54:00;;;;;;;;;;;;;;;;;;4436957;32;20230;-70
2024/04/16 13:56:25;;;;;;;;;;;;;;;;;;4451172;32;20221;-71
2024/04/16 13:58:50;;;;;;;;;;;;;;;;;;4451726;32;19959;-71
2024/04/16 14:01:16;;;;;;;;;;;;;;;;;;4452241;32;19936;-70
2024/04/16 14:03:41;;;;;;;;;;;;;;;;;;4451873;32;20368;-71
2024/04/16 14:06:06;;;;;;;;;;;;;;;;;;4441946;32;19947;-72
2024/04/16 14:08:31;;;;;;;;;;;;;;;;;;4437428;32;19936;-70
2024/04/16 14:10:56;;;;;;;;;;;;;;;;;;4436706;32;19948;-71
2024/04/16 14:13:21;;;;;;;;;;;;;;;;;;4438396;32;19937;-70
2024/04/16 14:15:46;;;;;;;;;;;;;;;;;;4436528;32;19952;-72
2024/04/16 14:18:11;;;;;;;;;;;;;;;;;;4438688;32;19955;-72
2024/04/16 14:20:37;;;;;;;;;;;;;;;;;;4435867;32;19943;-72
2024/04/16 14:23:02;;;;;;;;;;;;;;;;;;4435689;32;19983;-70
2024/04/16 14:25:27;;;;;;;;;;;;;;;;;;4434837;32;19949;-70
2024/04/16 14:27:54;;;;;;;;;;;;;;;;;;4433985;32;20036;-72
2024/04/16 14:30:19;;;;;;;;;;;;;;;;;;4434810;32;20010;-70
2024/04/16 14:32:44;;;;;;;;;;;;;;;;;;4433591;32;19952;-71
2024/04/16 14:35:09;;;;;;;;;;;;;;;;;;4435433;32;19952;-71
2024/04/16 14:37:35;;;;;;;;;;;;;;;;;;4435664;32;19992;-71
2024/04/16 14:40:00;;;;;;;;;;;;;;;;;;4445667;32;19951;-71
2024/04/16 14:42:26;;;;;;;;;;;;;;;;;;4439015;32;19944;-72
2024/04/16 14:44:51;;;;;;;;;;;;;;;;;;4450966;32;19964;-71
2024/04/16 14:47:16;;;;;;;;;;;;;;;;;;4436987;32;19933;-72
2024/04/16 14:49:41;;;;;;;;;;;;;;;;;;4437514;32;19959;-71
2024/04/16 14:52:08;;;;;;;;;;;;;;;;;;4437077;32;19971;-71
2024/04/16 14:54:33;;;;;;;;;;;;;;;;;;4441500;32;19982;-71
2024/04/16 14:56:58;;;;;;;;;;;;;;;;;;4454062;32;19936;-71
2024/04/16 14:59:23;;;;;;;;;;;;;;;;;;4437175;32;19940;-72
2024/04/16 15:01:48;;;;;;;;;;;;;;;;;;4450772;32;19999;-71
2024/04/16 15:04:13;;;;;;;;;;;;;;;;;;4436309;32;19940;-71
2024/04/16 15:06:43;;;;;;;;;;;;;;;;;;4452113;32;19989;-73
2024/04/16 15:09:08;;;;;;;;;;;;;;;;;;4452444;32;19947;-72
2024/04/16 15:11:33;;;;;;;;;;;;;;;;;;4450129;32;19972;-72
2024/04/16 15:13:58;;;;;;;;;;;;;;;;;;4435902;32;19982;-72
2024/04/16 15:16:23;;;;;;;;;;;;;;;;;;4449664;32;20364;-71
2024/04/16 15:18:48;;;;;;;;;;;;;;;;;;4450230;32;19953;-71
2024/04/16 15:21:13;;;;;;;;;;;;;;;;;;4437900;32;19937;-73
2024/04/16 15:23:38;;;;;;;;;;;;;;;;;;4450579;32;19962;-71
2024/04/16 15:26:03;;;;;;;;;;;;;;;;;;4451003;32;20273;-70
2024/04/16 15:28:29;;;;;;;;;;;;;;;;;;4438453;32;19979;-72
2024/04/16 15:30:54;;;;;;;;;;;;;;;;;;4436737;32;19983;-71
2024/04/16 15:33:19;;;;;;;;;;;;;;;;;;4443907;32;19955;-72
2024/04/16 15:35:44;;;;;;;;;;;;;;;;;;4435248;32;19941;-72
2024/04/16 15:38:09;;;;;;;;;;;;;;;;;;4433720;32;19936;-71
2024/04/16 15:40:34;;;;;;;;;;;;;;;;;;4433479;32;19949;-73
2024/04/16 15:43:00;;;;;;;;;;;;;;;;;;4435948;32;19947;-71
2024/04/16 15:45:25;;;;;;;;;;;;;;;;;;4449838;32;19978;-72
2024/04/16 15:47:50;;;;;;;;;;;;;;;;;;4449589;32;19951;-70
2024/04/16 15:50:15;;;;;;;;;;;;;;;;;;4451147;32;20311;-71
2024/04/16 15:52:40;;;;;;;;;;;;;;;;;;4451754;32;20195;-69
2024/04/16 15:55:05;;;;;;;;;;;;;;;;;;4450482;32;20277;-70
2024/04/16 15:57:32;;;;;;;;;;;;;;;;;;4436055;32;19936;-71
2024/04/16 15:59:57;;;;;;;;;;;;;;;;;;4447332;32;19951;-71
2024/04/16 16:02:22;;;;;;;;;;;;;;;;;;4451619;32;19941;-71
2024/04/16 16:04:47;;;;;;;;;;;;;;;;;;4452168;32;20018;-71
2024/04/16 16:07:12;;;;;;;;;;;;;;;;;;4450949;32;19969;-71
2024/04/16 16:09:37;;;;;;;;;;;;;;;;;;4451187;32;19932;-71
2024/04/16 16:12:02;;;;;;;;;;;;;;;;;;4454440;32;20372;-71
2024/04/16 16:14:27;;;;;;;;;;;;;;;;;;4453034;32;19951;-72
2024/04/16 16:16:52;;;;;;;;;;;;;;;;;;4454330;32;19947;-71
2024/04/16 16:19:17;;;;;;;;;;;;;;;;;;4443678;32;19945;-72
2024/04/16 16:21:43;;;;;;;;;;;;;;;;;;4442518;32;19975;-70
2024/04/16 16:24:08;;;;;;;;;;;;;;;;;;4453917;32;19945;-72
2024/04/16 16:26:33;;;;;;;;;;;;;;;;;;4453789;32;20015;-70
2024/04/16 16:28:58;;;;;;;;;;;;;;;;;;4443332;32;19947;-69
2024/04/16 16:31:23;;;;;;;;;;;;;;;;;;4437663;32;19952;-71
2024/04/16 16:33:48;;;;;;;;;;;;;;;;;;4437187;32;19953;-72